Strona główna
METAR-TAF:

METAR-TAF

Lotnisko :

Port lotniczy Aberdeen

Aberdeen, Szkocja

Szerokość geograficzna: 57-12N, Długość geograficzna: 002-13W, wysokość: 65 m

Aktualna obserwacja pogody

Raport powstał 22 minut temu, godzina 03:50 UTC
Wiatr 9 kt od południowy zachód
Temperatura 4°C
Wilgotność 70%
Ciśnienie 990 hPa
Widzialność 10 km lub więcej

METAR: EGPD 110350Z AUTO 23009KT 9999 NCD 04/M01 Q0990 NOSIG

czas: 04:12 (04:12 UTC)

Prognoza

Raport powstał 5 godziny i 17 minut temu, godzina 22:55 UTC
Prognoza ważna od 11 godzina 00 UTC do 11 godzina 24 UTC
Wiatr 9 kt od południowy zachód
Widzialność 10 km lub więcej
Mało chmury na wysokości 2000 ft
Prawdopodobieństwo 30% :
Przejściowo
od 11 godzina 00 UTC do 11 godzina 06 UTC
Wiatr 15 kt od zachodnio-południowy zachód w porywach dochodzący do 25 kt
Przejściowo
od 11 godzina 06 UTC do 11 godzina 18 UTC
Wiatr 20 kt od zachodnio-południowy zachód w porywach dochodzący do 30 kt

TAF: EGPD 102255Z 1100/1124 23009KT 9999 FEW020 PROB30 TEMPO 1100/1106 24015G25KT TEMPO 1106/1118 24020G30KT

Obserwacja i prognoza pogody dla ponad 4000 lotnisk (raport METAR i TAF).

Dostępne stacje oznaczono żółtymi i czerwonymi punktami na mapie.

Najedź kursorem aby zobaczyć nazwę stacji.

Kliknij aby zobaczyć obserwacje i prognozy pogody.

Aby zmienić mapę: kliknij na zielony przycisk z czarnym krzyżykiem, aby powiększyć; na zielony przycisk z myślnikiem, aby pomniejszyć; na zielone strzałki, aby przejść do map sąsiednich.


METAR-TAF: